Time,TemperatureF,DewpointF,PressureIn,WindDirection,WindDirectionDegrees,WindSpeedMPH,WindSpeedGustMPH,Humidity,HourlyPrecipIn,Conditions,Clouds,dailyrainin,SoftwareType,DateUTC
2013-01-15 00:00:00,35.6,16.9,30.12,NW,315,3.1,3.1,46,0.00,,OVC,0.00,VWS V14.01,2013-01-15 05:00:00,
2013-01-15 00:01:00,35.6,16.9,30.12,NNW,338,3.4,3.4,46,0.00,,OVC,0.00,VWS V14.01,2013-01-15 05:01:00,
2013-01-15 00:02:00,35.6,16.9,30.12,NNW,338,3.8,3.8,46,0.00,,OVC,0.00,VWS V14.01,2013-01-15 05:02:00,
2013-01-15 00:03:00,35.6,16.9,30.12,NNW,338,0.0,3.8,46,0.00,,OVC,0.00,VWS V14.01,2013-01-15 05:03:00,
2013-01-15 00:08:00,35.4,16.7,30.15,NNW,338,2.5,3.8,46,0.00,,OVC,0.00,VWS V14.01,2013-01-15 05:08:00,
2013-01-15 00:13:00,35.4,16.7,30.15,NNW,338,6.0,6.0,46,0.00,,OVC,0.00,VWS V14.01,2013-01-15 05:13:00,
2013-01-15 00:18:00,35.6,16.4,30.15,NNW,338,7.8,7.8,45,0.00,,OVC,0.00,VWS V14.01,2013-01-15 05:18:00,
2013-01-15 00:23:00,35.8,16.5,30.15,NW,315,6.3,6.5,45,0.00,,OVC,0.00,VWS V14.01,2013-01-15 05:23:00,
2013-01-15 00:28:00,35.6,17.4,30.15,NW,315,6.0,8.7,47,0.00,,OVC,0.00,VWS V14.01,2013-01-15 05:28:00,
2013-01-15 00:30:00,35.6,16.9,30.15,NW,315,8.7,8.7,46,0.00,,OVC,0.00,VWS V14.01,2013-01-15 05:30:00,
2013-01-15 00:33:00,35.8,16.0,30.15,NNW,338,6.5,8.5,44,0.00,,OVC,0.00,VWS V14.01,2013-01-15 05:33:00,
2013-01-15 00:38:00,35.8,16.0,30.18,NW,315,6.0,9.2,44,0.00,,OVC,0.00,VWS V14.01,2013-01-15 05:38:00,
2013-01-15 00:44:00,35.8,16.5,30.18,NW,315,7.6,7.6,45,0.00,,OVC,0.00,VWS V14.01,2013-01-15 05:44:00,
2013-01-15 00:49:00,35.8,16.0,30.18,NNW,338,5.6,7.4,44,0.00,,OVC,0.00,VWS V14.01,2013-01-15 05:49:00,
2013-01-15 00:54:00,35.6,16.9,30.21,NNW,338,6.3,7.8,46,0.00,,OVC,0.00,VWS V14.01,2013-01-15 05:54:00,
2013-01-15 00:59:00,35.6,16.4,30.21,NNW,338,4.0,5.6,45,0.00,,OVC,0.00,VWS V14.01,2013-01-15 05:59:00,
2013-01-15 01:00:00,35.6,16.4,30.21,NNW,338,3.8,5.8,45,0.00,,OVC,0.00,VWS V14.01,2013-01-15 06:00:00,
2013-01-15 01:04:00,35.4,16.7,30.21,NW,315,3.6,4.3,46,0.00,,OVC,0.00,VWS V14.01,2013-01-15 06:04:00,
2013-01-15 01:09:00,35.4,17.2,30.21,NW,315,3.8,4.9,47,0.00,,OVC,0.00,VWS V14.01,2013-01-15 06:09:00,
2013-01-15 01:14:00,35.2,17.5,30.21,NNW,338,5.8,5.8,48,0.00,,OVC,0.00,VWS V14.01,2013-01-15 06:14:00,
2013-01-15 01:19:00,35.2,17.0,30.21,NW,315,6.3,6.5,47,0.00,,OVC,0.00,VWS V14.01,2013-01-15 06:19:00,
2013-01-15 01:24:00,35.2,17.0,30.21,NNW,338,1.3,5.8,47,0.00,,OVC,0.00,VWS V14.01,2013-01-15 06:24:00,
2013-01-15 01:29:00,34.9,17.2,30.21,North,0,1.6,2.5,48,0.00,,OVC,0.00,VWS V14.01,2013-01-15 06:29:00,
2013-01-15 01:30:00,34.9,17.2,30.21,North,0,2.2,3.1,48,0.00,,OVC,0.00,VWS V14.01,2013-01-15 06:30:00,
2013-01-15 01:34:00,34.5,17.3,30.21,North,0,0.9,2.2,49,0.00,,OVC,0.00,VWS V14.01,2013-01-15 06:34:00,
2013-01-15 01:39:00,34.0,17.3,30.21,North,0,0.0,0.0,50,0.00,,OVC,0.00,VWS V14.01,2013-01-15 06:39:00,
2013-01-15 01:44:00,34.0,17.3,30.21,NW,315,2.7,4.0,50,0.00,,OVC,0.00,VWS V14.01,2013-01-15 06:44:00,
2013-01-15 01:49:00,33.8,17.6,30.21,NNW,338,2.9,2.9,51,0.00,,OVC,0.00,VWS V14.01,2013-01-15 06:49:00,
2013-01-15 01:54:00,33.8,17.6,30.18,NNW,338,1.6,2.0,51,0.00,,OVC,0.00,VWS V14.01,2013-01-15 06:54:00,
2013-01-15 01:59:00,33.3,18.0,30.18,NNW,338,1.3,1.3,53,0.00,,OVC,0.00,VWS V14.01,2013-01-15 06:59:00,
2013-01-15 02:00:00,33.6,17.9,30.18,NNW,338,0.0,0.9,52,0.00,,OVC,0.00,VWS V14.01,2013-01-15 07:00:00,
2013-01-15 02:04:00,32.9,18.1,30.18,NNW,338,0.0,0.0,54,0.00,,OVC,0.00,VWS V14.01,2013-01-15 07:04:00,
2013-01-15 02:09:00,32.7,18.4,30.21,NNW,338,1.1,1.3,55,0.00,,OVC,0.00,VWS V14.01,2013-01-15 07:09:00,
2013-01-15 02:14:00,32.7,18.8,30.21,NNW,338,1.1,1.6,56,0.00,,OVC,0.00,VWS V14.01,2013-01-15 07:14:00,
2013-01-15 02:19:00,32.7,18.8,30.21,NNW,338,1.6,1.6,56,0.00,,OVC,0.00,VWS V14.01,2013-01-15 07:19:00,
2013-01-15 02:24:00,32.5,18.6,30.21,NNW,338,0.9,1.3,56,0.00,,OVC,0.00,VWS V14.01,2013-01-15 07:24:00,
2013-01-15 02:29:00,32.5,19.0,30.21,NNW,338,2.9,2.9,57,0.00,,OVC,0.00,VWS V14.01,2013-01-15 07:29:00,
2013-01-15 02:30:00,32.5,19.0,30.21,NNW,338,0.0,0.0,57,0.00,,OVC,0.00,VWS V14.01,2013-01-15 07:30:00,
2013-01-15 02:34:00,32.5,19.0,30.21,NNW,338,1.6,2.0,57,0.00,,OVC,0.00,VWS V14.01,2013-01-15 07:34:00,
2013-01-15 02:39:00,32.2,19.1,30.21,NNW,338,0.0,0.0,58,0.00,,OVC,0.00,VWS V14.01,2013-01-15 07:39:00,
2013-01-15 02:44:00,32.0,18.9,30.21,NNW,338,0.0,0.0,58,0.00,,OVC,0.00,VWS V14.01,2013-01-15 07:44:00,
2013-01-15 02:49:00,31.5,19.2,30.21,NNW,338,0.0,0.0,60,0.00,,OVC,0.00,VWS V14.01,2013-01-15 07:49:00,
2013-01-15 02:54:00,31.3,19.4,30.21,NNW,338,0.0,0.0,61,0.00,,OVC,0.00,VWS V14.01,2013-01-15 07:54:00,
2013-01-15 02:59:00,31.1,19.2,30.21,NNW,338,0.0,0.0,61,0.00,,OVC,0.00,VWS V14.01,2013-01-15 07:59:00,
2013-01-15 03:00:00,31.1,19.2,30.21,NNW,338,0.0,0.0,61,0.00,,OVC,0.00,VWS V14.01,2013-01-15 08:00:00,
2013-01-15 03:04:00,31.1,20.4,30.21,NNW,338,0.0,1.3,64,0.00,,OVC,0.00,VWS V14.01,2013-01-15 08:04:00,
2013-01-15 03:09:00,30.9,19.8,30.21,NNW,338,0.0,0.0,63,0.00,,OVC,0.00,VWS V14.01,2013-01-15 08:09:00,
2013-01-15 03:14:00,30.9,19.8,30.21,NNW,338,2.0,2.2,63,0.00,,OVC,0.00,VWS V14.01,2013-01-15 08:14:00,
2013-01-15 03:19:00,30.9,21.3,30.21,NNW,338,2.0,2.0,67,0.00,,OVC,0.00,VWS V14.01,2013-01-15 08:19:00,
2013-01-15 03:24:00,31.1,22.1,30.21,NNW,338,2.0,2.5,69,0.00,,OVC,0.00,VWS V14.01,2013-01-15 08:24:00,
2013-01-15 03:29:00,31.1,21.8,30.21,NNW,338,0.0,0.0,68,0.00,,OVC,0.00,VWS V14.01,2013-01-15 08:29:00,
2013-01-15 03:30:00,31.1,21.8,30.21,NNW,338,0.0,0.0,68,0.00,,OVC,0.00,VWS V14.01,2013-01-15 08:30:00,
2013-01-15 03:34:00,30.9,21.3,30.21,NNW,338,1.3,1.3,67,0.00,,OVC,0.00,VWS V14.01,2013-01-15 08:34:00,
2013-01-15 03:39:00,31.3,21.6,30.21,NW,315,1.3,2.5,67,0.00,,OVC,0.00,VWS V14.01,2013-01-15 08:39:00,
2013-01-15 03:45:00,31.5,20.7,30.21,NW,315,0.0,0.0,64,0.00,,OVC,0.00,VWS V14.01,2013-01-15 08:45:00,
2013-01-15 03:50:00,31.3,20.5,30.21,NW,315,0.0,0.0,64,0.00,,OVC,0.00,VWS V14.01,2013-01-15 08:50:00,
2013-01-15 03:55:00,31.1,21.4,30.21,NW,315,0.0,0.0,67,0.00,,OVC,0.00,VWS V14.01,2013-01-15 08:55:00,
2013-01-15 04:00:00,30.9,21.3,30.21,NW,315,0.0,0.0,67,0.00,,OVC,0.00,VWS V14.01,2013-01-15 09:00:00,
2013-01-15 04:05:00,30.6,20.9,30.21,NW,315,0.0,0.0,67,0.00,,OVC,0.00,VWS V14.01,2013-01-15 09:05:00,
2013-01-15 04:10:00,30.4,20.8,30.18,NW,315,0.0,0.0,67,0.00,,OVC,0.00,VWS V14.01,2013-01-15 09:10:00,
2013-01-15 04:15:00,30.0,21.1,30.18,NW,315,0.0,0.0,69,0.00,,OVC,0.00,VWS V14.01,2013-01-15 09:15:00,
2013-01-15 04:20:00,29.8,20.9,30.18,NW,315,0.0,0.0,69,0.00,,OVC,0.00,VWS V14.01,2013-01-15 09:20:00,
2013-01-15 04:25:00,29.5,20.2,30.21,NW,315,0.0,0.0,68,0.00,,OVC,0.00,VWS V14.01,2013-01-15 09:25:00,
2013-01-15 04:30:00,29.3,20.1,30.21,NW,315,0.0,0.0,68,0.00,,OVC,0.00,VWS V14.01,2013-01-15 09:30:00,
2013-01-15 04:35:00,28.6,19.4,30.21,NW,315,0.0,0.0,68,0.00,,OVC,0.00,VWS V14.01,2013-01-15 09:35:00,
2013-01-15 04:40:00,28.2,19.0,30.21,NW,315,0.0,0.0,68,0.00,,OVC,0.00,VWS V14.01,2013-01-15 09:40:00,
2013-01-15 04:45:00,27.9,18.7,30.21,NW,315,0.0,0.0,68,0.00,,OVC,0.00,VWS V14.01,2013-01-15 09:45:00,
2013-01-15 04:50:00,27.5,18.7,30.21,NW,315,0.0,0.0,69,0.00,,OVC,0.00,VWS V14.01,2013-01-15 09:50:00,
2013-01-15 04:55:00,27.0,18.5,30.21,NW,315,0.0,0.0,70,0.00,,OVC,0.00,VWS V14.01,2013-01-15 09:55:00,
2013-01-15 05:00:00,26.8,18.6,30.21,NW,315,0.0,0.0,71,0.00,,OVC,0.00,VWS V14.01,2013-01-15 10:00:00,
2013-01-15 05:05:00,26.6,18.5,30.21,NW,315,0.0,0.0,71,0.00,,OVC,0.00,VWS V14.01,2013-01-15 10:05:00,
2013-01-15 05:10:00,26.1,18.3,30.21,NW,315,0.0,0.0,72,0.00,,OVC,0.00,VWS V14.01,2013-01-15 10:10:00,
2013-01-15 05:15:00,25.9,18.1,30.21,NW,315,0.0,0.0,72,0.00,,OVC,0.00,VWS V14.01,2013-01-15 10:15:00,
2013-01-15 05:20:00,26.1,18.6,30.21,NW,315,0.0,0.0,73,0.00,,OVC,0.00,VWS V14.01,2013-01-15 10:20:00,
2013-01-15 05:25:00,25.9,18.8,30.21,NW,315,0.0,0.0,74,0.00,,OVC,0.00,VWS V14.01,2013-01-15 10:25:00,
2013-01-15 05:30:00,25.9,18.4,30.21,NW,315,1.1,1.6,73,0.00,,OVC,0.00,VWS V14.01,2013-01-15 10:30:00,
2013-01-15 05:35:00,25.9,18.8,30.21,NW,315,0.0,0.0,74,0.00,,OVC,0.00,VWS V14.01,2013-01-15 10:35:00,
2013-01-15 05:40:00,25.9,19.1,30.21,NW,315,0.0,0.0,75,0.00,,OVC,0.00,VWS V14.01,2013-01-15 10:40:00,
2013-01-15 05:45:00,25.5,19.0,30.21,NW,315,0.0,0.0,76,0.00,,OVC,0.00,VWS V14.01,2013-01-15 10:45:00,
2013-01-15 05:50:00,25.7,19.5,30.21,NW,315,0.0,0.0,77,0.00,,OVC,0.00,VWS V14.01,2013-01-15 10:50:00,
2013-01-15 05:55:00,25.9,19.7,30.24,NW,315,0.0,0.0,77,0.00,,OVC,0.00,VWS V14.01,2013-01-15 10:55:00,
2013-01-15 06:00:00,26.1,19.9,30.24,NW,315,0.0,2.2,77,0.00,,OVC,0.00,VWS V14.01,2013-01-15 11:00:00,
2013-01-15 06:05:00,26.1,20.5,30.24,NW,315,0.0,0.0,79,0.00,,OVC,0.00,VWS V14.01,2013-01-15 11:05:00,
2013-01-15 06:10:00,26.1,20.5,30.24,NW,315,0.0,0.0,79,0.00,,OVC,0.00,VWS V14.01,2013-01-15 11:10:00,
2013-01-15 06:15:00,26.1,20.5,30.24,NW,315,0.0,0.0,79,0.00,,OVC,0.00,VWS V14.01,2013-01-15 11:15:00,
2013-01-15 06:20:00,25.9,20.6,30.24,NW,315,0.0,0.0,80,0.00,,OVC,0.00,VWS V14.01,2013-01-15 11:20:00,
2013-01-15 06:25:00,25.5,19.9,30.21,NW,315,0.0,0.0,79,0.00,,OVC,0.00,VWS V14.01,2013-01-15 11:25:00,
2013-01-15 06:30:00,25.3,20.0,30.21,NW,315,0.0,0.0,80,0.00,,OVC,0.00,VWS V14.01,2013-01-15 11:30:00,
2013-01-15 06:35:00,25.2,19.9,30.21,NW,315,0.0,0.0,80,0.00,,OVC,0.00,VWS V14.01,2013-01-15 11:35:00,
2013-01-15 06:40:00,25.3,19.8,30.21,NW,315,0.0,0.0,79,0.00,,OVC,0.00,VWS V14.01,2013-01-15 11:40:00,
2013-01-15 06:45:00,25.5,20.2,30.21,NW,315,0.0,0.0,80,0.00,,OVC,0.00,VWS V14.01,2013-01-15 11:45:00,
2013-01-15 06:50:00,25.5,20.2,30.21,NW,315,0.0,0.0,80,0.00,,OVC,0.00,VWS V14.01,2013-01-15 11:50:00,
2013-01-15 06:55:00,25.7,20.4,30.24,NW,315,0.0,0.0,80,0.00,,OVC,0.00,VWS V14.01,2013-01-15 11:55:00,
2013-01-15 07:00:00,26.1,21.0,30.24,NW,315,0.0,0.0,81,0.00,,OVC,0.00,VWS V14.01,2013-01-15 12:00:00,
2013-01-15 07:05:00,26.2,22.1,30.24,NW,315,0.0,0.0,84,0.00,,OVC,0.00,VWS V14.01,2013-01-15 12:05:00,
2013-01-15 07:11:00,26.4,22.2,30.24,NW,315,0.0,0.0,84,0.00,,OVC,0.00,VWS V14.01,2013-01-15 12:11:00,
2013-01-15 07:16:00,26.4,22.2,30.24,NW,315,0.0,0.0,84,0.00,,OVC,0.00,VWS V14.01,2013-01-15 12:16:00,
2013-01-15 07:21:00,26.6,22.4,30.24,NW,315,0.0,0.0,84,0.00,,OVC,0.00,VWS V14.01,2013-01-15 12:21:00,
2013-01-15 07:26:00,27.0,22.5,30.27,NW,315,0.0,0.0,83,0.00,,OVC,0.00,VWS V14.01,2013-01-15 12:26:00,
2013-01-15 07:30:00,27.0,22.5,30.27,NW,315,0.0,0.0,83,0.00,,OVC,0.00,VWS V14.01,2013-01-15 12:30:00,
2013-01-15 07:31:00,27.1,22.7,30.27,NW,315,0.0,0.0,83,0.00,,OVC,0.00,VWS V14.01,2013-01-15 12:31:00,
2013-01-15 07:36:00,27.3,22.9,30.27,NW,315,0.0,0.0,83,0.00,,OVC,0.00,VWS V14.01,2013-01-15 12:36:00,
2013-01-15 07:41:00,27.7,23.2,30.27,NW,315,0.0,0.0,83,0.00,,OVC,0.00,VWS V14.01,2013-01-15 12:41:00,
2013-01-15 07:46:00,27.9,23.4,30.27,NW,315,0.0,0.0,83,0.00,,OVC,0.00,VWS V14.01,2013-01-15 12:46:00,
2013-01-15 07:51:00,28.0,23.5,30.27,NW,315,0.0,0.0,83,0.00,,OVC,0.00,VWS V14.01,2013-01-15 12:51:00,
2013-01-15 07:56:00,28.2,23.7,30.27,NW,315,0.0,0.0,83,0.00,,OVC,0.00,VWS V14.01,2013-01-15 12:56:00,
2013-01-15 08:00:00,28.4,23.9,30.27,NW,315,0.0,0.0,83,0.00,,OVC,0.00,VWS V14.01,2013-01-15 13:00:00,
2013-01-15 08:01:00,28.6,23.8,30.27,NW,315,0.0,0.0,82,0.00,,OVC,0.00,VWS V14.01,2013-01-15 13:01:00,
2013-01-15 08:06:00,28.8,24.0,30.27,NW,315,0.0,0.0,82,0.00,,OVC,0.00,VWS V14.01,2013-01-15 13:06:00,
2013-01-15 08:11:00,28.9,24.1,30.27,NW,315,0.0,0.0,82,0.00,,OVC,0.00,VWS V14.01,2013-01-15 13:11:00,
2013-01-15 08:16:00,29.3,24.2,30.27,NW,315,0.0,0.0,81,0.00,,OVC,0.00,VWS V14.01,2013-01-15 13:16:00,
2013-01-15 08:21:00,29.5,24.7,30.27,NW,315,0.0,0.0,82,0.00,,OVC,0.00,VWS V14.01,2013-01-15 13:21:00,
2013-01-15 08:26:00,29.8,25.0,30.27,NW,315,0.0,0.0,82,0.00,,OVC,0.00,VWS V14.01,2013-01-15 13:26:00,
2013-01-15 08:30:00,29.8,25.0,30.27,NW,315,0.0,0.0,82,0.00,,OVC,0.00,VWS V14.01,2013-01-15 13:30:00,
2013-01-15 08:31:00,30.2,25.1,30.27,NW,315,0.0,0.0,81,0.00,,OVC,0.00,VWS V14.01,2013-01-15 13:31:00,
2013-01-15 08:36:00,30.6,25.1,30.27,NW,315,0.0,0.0,80,0.00,,OVC,0.00,VWS V14.01,2013-01-15 13:36:00,
2013-01-15 08:41:00,31.1,25.4,30.24,NW,315,0.0,0.0,79,0.00,,OVC,0.00,VWS V14.01,2013-01-15 13:41:00,
2013-01-15 08:46:00,31.3,24.3,30.24,NW,315,2.7,2.7,75,0.00,,OVC,0.00,VWS V14.01,2013-01-15 13:46:00,
2013-01-15 08:51:00,31.5,23.8,30.24,NW,315,0.9,1.6,73,0.00,,OVC,0.00,VWS V14.01,2013-01-15 13:51:00,
2013-01-15 08:56:00,32.2,24.2,30.27,NW,315,0.9,1.3,72,0.00,,OVC,0.00,VWS V14.01,2013-01-15 13:56:00,
2013-01-15 09:00:00,32.4,24.4,30.27,NW,315,1.6,1.6,72,0.00,,OVC,0.00,VWS V14.01,2013-01-15 14:00:00,
2013-01-15 09:01:00,32.5,23.9,30.27,NNW,338,2.5,2.5,70,0.00,,OVC,0.00,VWS V14.01,2013-01-15 14:01:00,
2013-01-15 09:06:00,32.5,18.6,30.27,NNW,338,2.0,3.8,56,0.00,,OVC,0.00,VWS V14.01,2013-01-15 14:06:00,
2013-01-15 09:11:00,32.7,17.9,30.27,NNW,338,3.4,4.0,54,0.00,,OVC,0.00,VWS V14.01,2013-01-15 14:11:00,
2013-01-15 09:16:00,32.5,16.4,30.27,NNW,338,3.1,5.6,51,0.00,,OVC,0.00,VWS V14.01,2013-01-15 14:16:00,
2013-01-15 09:21:00,32.7,16.6,30.27,NNW,338,3.1,3.1,51,0.00,,OVC,0.00,VWS V14.01,2013-01-15 14:21:00,
2013-01-15 09:26:00,32.7,15.7,30.27,NW,315,4.0,4.0,49,0.00,,OVC,0.00,VWS V14.01,2013-01-15 14:26:00,
2013-01-15 09:30:00,32.9,15.4,30.27,NW,315,1.3,4.0,48,0.00,,OVC,0.00,VWS V14.01,2013-01-15 14:30:00,
2013-01-15 09:31:00,33.1,16.5,30.27,NNW,338,2.7,2.7,50,0.00,,OVC,0.00,VWS V14.01,2013-01-15 14:31:00,
2013-01-15 09:36:00,33.1,15.1,30.27,NNW,338,2.7,5.8,47,0.00,,OVC,0.00,VWS V14.01,2013-01-15 14:36:00,
2013-01-15 09:41:00,33.3,15.7,30.27,NNW,338,3.6,4.3,48,0.00,,OVC,0.00,VWS V14.01,2013-01-15 14:41:00,
2013-01-15 09:46:00,33.3,14.2,30.27,NNW,338,2.5,4.3,45,0.00,,OVC,0.00,VWS V14.01,2013-01-15 14:46:00,
2013-01-15 09:51:00,33.8,14.2,30.27,NNW,338,2.2,4.0,44,0.00,,OVC,0.00,VWS V14.01,2013-01-15 14:51:00,
2013-01-15 09:56:00,34.0,13.9,30.27,NNW,338,2.7,4.9,43,0.00,,OVC,0.00,VWS V14.01,2013-01-15 14:56:00,
2013-01-15 10:00:00,34.2,14.0,30.27,NNW,338,3.1,4.0,43,0.00,,OVC,0.00,VWS V14.01,2013-01-15 15:00:00,
2013-01-15 10:01:00,34.3,13.6,30.27,NW,315,3.6,3.8,42,0.00,,OVC,0.00,VWS V14.01,2013-01-15 15:01:00,
2013-01-15 10:06:00,34.2,13.5,30.27,NNW,338,1.6,4.0,42,0.00,,OVC,0.00,VWS V14.01,2013-01-15 15:06:00,
2013-01-15 10:11:00,34.0,13.3,30.27,NNW,338,3.1,5.6,42,0.00,,OVC,0.00,VWS V14.01,2013-01-15 15:11:00,
2013-01-15 10:16:00,34.3,13.6,30.27,NNW,338,1.6,3.4,42,0.00,,OVC,0.00,VWS V14.01,2013-01-15 15:16:00,
2013-01-15 10:21:00,34.5,13.8,30.24,NNW,338,2.7,4.9,42,0.00,,OVC,0.00,VWS V14.01,2013-01-15 15:21:00,
2013-01-15 10:26:00,34.5,13.3,30.24,NNW,338,2.9,5.6,41,0.00,,OVC,0.00,VWS V14.01,2013-01-15 15:26:00,
2013-01-15 10:30:00,34.5,13.3,30.24,NW,315,2.5,4.9,41,0.00,,OVC,0.00,VWS V14.01,2013-01-15 15:30:00,
2013-01-15 10:31:00,34.7,13.4,30.24,NNW,338,3.8,3.8,41,0.00,,OVC,0.00,VWS V14.01,2013-01-15 15:31:00,
2013-01-15 10:36:00,34.9,13.6,30.27,NNW,338,4.0,4.0,41,0.00,,OVC,0.00,VWS V14.01,2013-01-15 15:36:00,
2013-01-15 10:41:00,34.9,13.0,30.27,NNW,338,2.5,3.8,40,0.00,,OVC,0.00,VWS V14.01,2013-01-15 15:41:00,
2013-01-15 10:46:00,35.8,14.4,30.27,NNW,338,1.1,2.5,41,0.00,,OVC,0.00,VWS V14.01,2013-01-15 15:46:00,
2013-01-15 10:52:00,35.4,13.5,30.27,NW,315,2.0,4.7,40,0.00,,OVC,0.00,VWS V14.01,2013-01-15 15:52:00,
2013-01-15 10:57:00,36.1,14.2,30.27,NNE,22,1.3,2.5,40,0.00,,OVC,0.00,VWS V14.01,2013-01-15 15:57:00,
2013-01-15 11:00:00,36.1,14.2,30.27,NE,45,1.3,3.1,40,0.00,,OVC,0.00,VWS V14.01,2013-01-15 16:00:00,
2013-01-15 11:02:00,36.9,15.4,30.27,NE,45,0.0,2.2,41,0.00,,OVC,0.00,VWS V14.01,2013-01-15 16:02:00,
2013-01-15 11:07:00,37.6,15.5,30.27,NE,45,1.3,1.6,40,0.00,,OVC,0.00,VWS V14.01,2013-01-15 16:07:00,
2013-01-15 11:12:00,37.6,15.5,30.27,NE,45,1.6,2.5,40,0.00,,OVC,0.00,VWS V14.01,2013-01-15 16:12:00,
2013-01-15 11:17:00,37.0,15.0,30.27,NNW,338,2.9,2.9,40,0.00,,OVC,0.00,VWS V14.01,2013-01-15 16:17:00,
2013-01-15 11:22:00,36.7,14.1,30.24,NNW,338,0.9,3.6,39,0.00,,OVC,0.00,VWS V14.01,2013-01-15 16:22:00,
2013-01-15 11:27:00,37.4,14.7,30.24,NNE,22,1.3,2.2,39,0.00,,OVC,0.00,VWS V14.01,2013-01-15 16:27:00,
2013-01-15 11:30:00,37.4,14.7,30.24,NNE,22,2.0,2.2,39,0.00,,OVC,0.00,VWS V14.01,2013-01-15 16:30:00,
2013-01-15 11:32:00,37.6,15.5,30.24,North,0,1.1,2.0,40,0.00,,OVC,0.00,VWS V14.01,2013-01-15 16:32:00,
2013-01-15 11:37:00,36.5,12.7,30.27,North,0,2.2,4.9,37,0.00,,OVC,0.00,VWS V14.01,2013-01-15 16:37:00,
2013-01-15 11:42:00,36.7,13.5,30.27,WNW,292,2.7,3.1,38,0.00,,OVC,0.00,VWS V14.01,2013-01-15 16:42:00,
2013-01-15 11:47:00,37.2,14.6,30.27,NNE,22,0.0,1.1,39,0.00,,OVC,0.00,VWS V14.01,2013-01-15 16:47:00,
2013-01-15 11:52:00,36.5,13.9,30.24,NW,315,3.8,3.8,39,0.00,,OVC,0.00,VWS V14.01,2013-01-15 16:52:00,
2013-01-15 11:57:00,35.8,12.7,30.24,NNW,338,3.8,5.4,38,0.00,,OVC,0.00,VWS V14.01,2013-01-15 16:57:00,
2013-01-15 12:00:00,35.8,12.7,30.24,NNW,338,3.6,4.3,38,0.00,,OVC,0.00,VWS V14.01,2013-01-15 17:00:00,
2013-01-15 12:02:00,36.1,13.6,30.24,NNW,338,1.3,2.5,39,0.00,,OVC,0.00,VWS V14.01,2013-01-15 17:02:00,
2013-01-15 12:07:00,36.5,13.9,30.24,NNW,338,2.5,2.7,39,0.00,,OVC,0.00,VWS V14.01,2013-01-15 17:07:00,
2013-01-15 12:12:00,36.0,13.4,30.24,NNW,338,4.0,4.0,39,0.00,,OVC,0.00,VWS V14.01,2013-01-15 17:12:00,
2013-01-15 12:17:00,36.1,13.6,30.24,NW,315,2.0,2.0,39,0.00,,OVC,0.00,VWS V14.01,2013-01-15 17:17:00,
2013-01-15 12:22:00,35.8,13.3,30.24,NNW,338,0.0,1.6,39,0.00,,OVC,0.00,VWS V14.01,2013-01-15 17:22:00,
2013-01-15 12:27:00,36.5,14.5,30.24,NNE,22,1.3,2.0,40,0.00,,OVC,0.00,VWS V14.01,2013-01-15 17:27:00,
2013-01-15 12:30:00,36.5,14.5,30.24,NNE,22,1.3,2.0,40,0.00,,OVC,0.00,VWS V14.01,2013-01-15 17:30:00,
2013-01-15 12:32:00,36.3,13.8,30.24,NNW,338,2.5,2.5,39,0.00,,OVC,0.00,VWS V14.01,2013-01-15 17:32:00,
2013-01-15 12:37:00,35.8,13.3,30.21,NNW,338,0.0,1.1,39,0.00,,OVC,0.00,VWS V14.01,2013-01-15 17:37:00,
2013-01-15 12:42:00,36.1,14.2,30.21,WSW,248,2.2,2.2,40,0.00,,OVC,0.00,VWS V14.01,2013-01-15 17:42:00,
2013-01-15 12:47:00,36.3,14.3,30.21,WSW,248,0.9,2.0,40,0.00,,OVC,0.00,VWS V14.01,2013-01-15 17:47:00,
2013-01-15 12:52:00,36.9,14.8,30.21,SW,225,2.5,2.5,40,0.00,,OVC,0.00,VWS V14.01,2013-01-15 17:52:00,
2013-01-15 12:57:00,36.7,14.1,30.21,ESE,112,1.3,2.9,39,0.00,,OVC,0.00,VWS V14.01,2013-01-15 17:57:00,
2013-01-15 13:00:00,36.7,14.1,30.21,ESE,112,1.3,2.9,39,0.00,,OVC,0.00,VWS V14.01,2013-01-15 18:00:00,
2013-01-15 13:02:00,36.9,14.8,30.21,SE,135,0.0,1.1,40,0.00,,OVC,0.00,VWS V14.01,2013-01-15 18:02:00,
2013-01-15 13:07:00,36.5,13.9,30.21,NW,315,2.5,2.7,39,0.00,,OVC,0.00,VWS V14.01,2013-01-15 18:07:00,
2013-01-15 13:12:00,36.3,13.8,30.21,WNW,292,2.9,2.9,39,0.00,,OVC,0.00,VWS V14.01,2013-01-15 18:12:00,
2013-01-15 13:17:00,36.1,13.6,30.21,NNW,338,1.6,2.0,39,0.00,,OVC,0.00,VWS V14.01,2013-01-15 18:17:00,
2013-01-15 13:22:00,36.1,13.6,30.21,NNW,338,0.0,1.1,39,0.00,,OVC,0.00,VWS V14.01,2013-01-15 18:22:00,
2013-01-15 13:27:00,36.1,13.6,30.21,NNW,338,2.9,3.8,39,0.00,,OVC,0.00,VWS V14.01,2013-01-15 18:27:00,
2013-01-15 13:30:00,36.1,13.6,30.21,NNW,338,2.9,3.8,39,0.00,,OVC,0.00,VWS V14.01,2013-01-15 18:30:00,
2013-01-15 13:32:00,36.0,14.0,30.21,NNW,338,1.3,1.6,40,0.00,,OVC,0.00,VWS V14.01,2013-01-15 18:32:00,
2013-01-15 13:37:00,36.1,14.2,30.21,NW,315,2.0,2.9,40,0.00,,OVC,0.00,VWS V14.01,2013-01-15 18:37:00,
2013-01-15 13:42:00,36.1,14.2,30.21,NNW,338,0.0,2.7,40,0.00,,OVC,0.00,VWS V14.01,2013-01-15 18:42:00,
2013-01-15 13:47:00,35.6,13.7,30.21,NNW,338,3.6,4.0,40,0.00,,OVC,0.00,VWS V14.01,2013-01-15 18:47:00,
2013-01-15 13:52:00,35.6,13.7,30.21,NNW,338,2.5,2.5,40,0.00,,OVC,0.00,VWS V14.01,2013-01-15 18:52:00,
2013-01-15 13:57:00,35.6,13.7,30.21,NNW,338,2.9,2.9,40,0.00,,OVC,0.00,VWS V14.01,2013-01-15 18:57:00,
2013-01-15 14:00:00,35.6,13.7,30.21,NNW,338,2.9,2.9,40,0.00,,OVC,0.00,VWS V14.01,2013-01-15 19:00:00,
2013-01-15 14:02:00,35.4,14.1,30.21,NNW,338,3.1,3.6,41,0.00,,OVC,0.00,VWS V14.01,2013-01-15 19:02:00,
2013-01-15 14:07:00,35.4,14.1,30.24,NW,315,2.5,2.9,41,0.00,,OVC,0.00,VWS V14.01,2013-01-15 19:07:00,
2013-01-15 14:12:00,35.4,14.1,30.24,NW,315,0.0,1.6,41,0.00,,OVC,0.00,VWS V14.01,2013-01-15 19:12:00,
2013-01-15 14:18:00,35.6,14.2,30.24,NNW,338,2.9,2.9,41,0.00,,OVC,0.00,VWS V14.01,2013-01-15 19:18:00,
2013-01-15 14:23:00,35.4,14.1,30.24,NNW,338,2.9,3.6,41,0.00,,OVC,0.00,VWS V14.01,2013-01-15 19:23:00,
2013-01-15 14:28:00,35.6,14.2,30.24,NNW,338,1.3,1.3,41,0.00,,OVC,0.00,VWS V14.01,2013-01-15 19:28:00,
2013-01-15 14:30:00,35.6,14.2,30.24,NNW,338,1.1,1.1,41,0.00,,OVC,0.00,VWS V14.01,2013-01-15 19:30:00,
2013-01-15 14:33:00,35.6,14.2,30.24,NNW,338,1.3,2.0,41,0.00,,OVC,0.00,VWS V14.01,2013-01-15 19:33:00,
2013-01-15 14:38:00,35.8,14.4,30.21,NNW,338,0.0,2.0,41,0.00,,OVC,0.00,VWS V14.01,2013-01-15 19:38:00,
2013-01-15 14:43:00,35.8,14.4,30.21,NNW,338,2.5,2.5,41,0.00,,OVC,0.00,VWS V14.01,2013-01-15 19:43:00,
2013-01-15 14:48:00,36.0,14.6,30.21,NNW,338,1.6,1.6,41,0.00,,OVC,0.00,VWS V14.01,2013-01-15 19:48:00,
2013-01-15 14:53:00,35.8,14.4,30.24,NNW,338,1.3,2.5,41,0.00,,OVC,0.00,VWS V14.01,2013-01-15 19:53:00,
2013-01-15 14:58:00,36.0,14.6,30.24,NNW,338,0.0,0.0,41,0.00,,OVC,0.00,VWS V14.01,2013-01-15 19:58:00,
2013-01-15 15:00:00,36.0,14.6,30.24,NNW,338,0.0,0.0,41,0.00,,OVC,0.00,VWS V14.01,2013-01-15 20:00:00,
2013-01-15 15:03:00,36.0,14.6,30.24,NNW,338,0.0,0.0,41,0.00,,OVC,0.00,VWS V14.01,2013-01-15 20:03:00,
2013-01-15 15:08:00,36.0,14.6,30.21,WNW,292,0.9,2.0,41,0.00,,OVC,0.00,VWS V14.01,2013-01-15 20:08:00,
2013-01-15 15:13:00,36.0,14.6,30.21,WNW,292,1.6,1.6,41,0.00,,OVC,0.00,VWS V14.01,2013-01-15 20:13:00,
2013-01-15 15:18:00,36.0,14.6,30.21,West,270,1.3,1.3,41,0.00,,OVC,0.00,VWS V14.01,2013-01-15 20:18:00,
2013-01-15 15:23:00,36.0,14.6,30.24,West,270,2.0,3.1,41,0.00,,OVC,0.00,VWS V14.01,2013-01-15 20:23:00,
2013-01-15 15:28:00,35.2,15.0,30.24,WSW,248,1.6,2.0,43,0.00,,OVC,0.00,VWS V14.01,2013-01-15 20:28:00,
2013-01-15 15:30:00,35.2,15.0,30.24,WSW,248,1.6,2.2,43,0.00,,OVC,0.00,VWS V14.01,2013-01-15 20:30:00,
2013-01-15 15:33:00,35.1,14.8,30.24,WSW,248,0.9,2.0,43,0.00,,OVC,0.00,VWS V14.01,2013-01-15 20:33:00,
2013-01-15 15:38:00,35.1,14.8,30.24,WSW,248,1.1,1.3,43,0.00,,OVC,0.00,VWS V14.01,2013-01-15 20:38:00,
2013-01-15 15:43:00,35.1,14.8,30.24,WSW,248,1.3,1.6,43,0.00,,OVC,0.00,VWS V14.01,2013-01-15 20:43:00,
2013-01-15 15:48:00,35.1,14.8,30.24,WSW,248,0.0,2.0,43,0.00,,OVC,0.00,VWS V14.01,2013-01-15 20:48:00,
2013-01-15 15:53:00,34.2,15.1,30.24,WSW,248,1.3,2.2,45,0.00,,OVC,0.00,VWS V14.01,2013-01-15 20:53:00,
2013-01-15 15:58:00,34.0,14.9,30.24,SW,225,2.0,2.7,45,0.00,,OVC,0.00,VWS V14.01,2013-01-15 20:58:00,
2013-01-15 16:00:00,34.0,14.9,30.24,SW,225,2.0,2.7,45,0.00,,OVC,0.00,VWS V14.01,2013-01-15 21:00:00,
2013-01-15 16:03:00,33.6,15.1,30.24,SW,225,1.3,2.0,46,0.00,,OVC,0.00,VWS V14.01,2013-01-15 21:03:00,
2013-01-15 16:08:00,33.3,15.2,30.24,SW,225,0.0,0.0,47,0.00,,OVC,0.00,VWS V14.01,2013-01-15 21:08:00,
2013-01-15 16:13:00,32.9,15.4,30.24,SW,225,0.0,0.0,48,0.00,,OVC,0.00,VWS V14.01,2013-01-15 21:13:00,
2013-01-15 16:18:00,32.7,15.7,30.24,SW,225,0.0,0.0,49,0.00,,OVC,0.00,VWS V14.01,2013-01-15 21:18:00,
2013-01-15 16:23:00,32.4,15.8,30.21,SW,225,1.6,1.6,50,0.00,,OVC,0.00,VWS V14.01,2013-01-15 21:23:00,
2013-01-15 16:28:00,32.2,15.6,30.21,SW,225,0.0,0.0,50,0.00,,OVC,0.00,VWS V14.01,2013-01-15 21:28:00,
2013-01-15 16:30:00,32.2,15.6,30.21,SW,225,0.0,0.9,50,0.00,,OVC,0.00,VWS V14.01,2013-01-15 21:30:00,
2013-01-15 16:33:00,31.6,15.6,30.21,SW,225,0.0,0.0,51,0.00,,OVC,0.00,VWS V14.01,2013-01-15 21:33:00,
2013-01-15 16:38:00,31.1,15.1,30.21,SW,225,0.0,0.0,51,0.00,,OVC,0.00,VWS V14.01,2013-01-15 21:38:00,
2013-01-15 16:43:00,31.1,15.1,30.21,SW,225,0.0,0.0,51,0.00,,OVC,0.00,VWS V14.01,2013-01-15 21:43:00,
2013-01-15 16:48:00,30.2,15.6,30.21,SW,225,0.0,0.0,54,0.00,,OVC,0.00,VWS V14.01,2013-01-15 21:48:00,
2013-01-15 16:53:00,29.8,14.8,30.18,SW,225,0.0,0.0,53,0.00,,OVC,0.00,VWS V14.01,2013-01-15 21:53:00,
2013-01-15 16:58:00,29.3,14.7,30.18,SW,225,0.0,0.0,54,0.00,,OVC,0.00,VWS V14.01,2013-01-15 21:58:00,
2013-01-15 17:00:00,29.3,14.7,30.18,SW,225,0.0,0.0,54,0.00,,OVC,0.00,VWS V14.01,2013-01-15 22:00:00,
2013-01-15 17:03:00,29.1,14.6,30.18,SW,225,0.0,0.0,54,0.00,,OVC,0.00,VWS V14.01,2013-01-15 22:03:00,
2013-01-15 17:08:00,29.1,14.6,30.21,SW,225,0.0,0.0,54,0.00,,OVC,0.00,VWS V14.01,2013-01-15 22:08:00,
2013-01-15 17:13:00,28.9,14.8,30.21,SW,225,0.0,0.0,55,0.00,,OVC,0.00,VWS V14.01,2013-01-15 22:13:00,
2013-01-15 17:18:00,28.9,14.8,30.21,SW,225,0.0,0.0,55,0.00,,OVC,0.00,VWS V14.01,2013-01-15 22:18:00,
2013-01-15 17:23:00,28.8,15.1,30.21,SW,225,0.0,0.0,56,0.00,,OVC,0.00,VWS V14.01,2013-01-15 22:23:00,
2013-01-15 17:28:00,28.6,14.9,30.21,SW,225,0.0,0.0,56,0.00,,OVC,0.00,VWS V14.01,2013-01-15 22:28:00,
2013-01-15 17:30:00,28.6,14.9,30.21,SW,225,0.0,0.0,56,0.00,,OVC,0.00,VWS V14.01,2013-01-15 22:30:00,
2013-01-15 17:33:00,28.6,16.1,30.21,NNW,338,0.0,1.6,59,0.00,,OVC,0.00,VWS V14.01,2013-01-15 22:33:00,
2013-01-15 17:39:00,28.6,16.1,30.24,NNE,22,0.0,0.0,59,0.00,,OVC,0.00,VWS V14.01,2013-01-15 22:39:00,
2013-01-15 17:44:00,28.6,16.5,30.24,North,0,0.0,0.0,60,0.00,,OVC,0.00,VWS V14.01,2013-01-15 22:44:00,
2013-01-15 17:49:00,28.4,16.3,30.24,North,0,0.0,0.0,60,0.00,,OVC,0.00,VWS V14.01,2013-01-15 22:49:00,
2013-01-15 17:54:00,28.4,16.7,30.24,North,0,0.0,0.0,61,0.00,,OVC,0.00,VWS V14.01,2013-01-15 22:54:00,
2013-01-15 17:59:00,28.6,16.9,30.24,North,0,0.0,0.0,61,0.00,,OVC,0.00,VWS V14.01,2013-01-15 22:59:00,
2013-01-15 18:00:00,28.6,16.9,30.24,North,0,0.0,0.0,61,0.00,,OVC,0.00,VWS V14.01,2013-01-15 23:00:00,
2013-01-15 18:04:00,28.6,17.2,30.24,NNW,338,2.5,2.5,62,0.00,,OVC,0.00,VWS V14.01,2013-01-15 23:04:00,
2013-01-15 18:09:00,28.6,18.0,30.24,NNW,338,0.0,0.0,64,0.00,,OVC,0.00,VWS V14.01,2013-01-15 23:09:00,
2013-01-15 18:14:00,28.6,18.0,30.24,NW,315,4.0,4.0,64,0.00,,OVC,0.00,VWS V14.01,2013-01-15 23:14:00,
2013-01-15 18:19:00,28.8,20.2,30.24,North,0,1.1,1.3,70,0.00,,OVC,0.00,VWS V14.01,2013-01-15 23:19:00,
2013-01-15 18:24:00,28.9,19.7,30.24,North,0,0.0,0.0,68,0.00,,OVC,0.00,VWS V14.01,2013-01-15 23:24:00,
2013-01-15 18:29:00,28.9,19.7,30.24,North,0,0.0,0.0,68,0.00,,OVC,0.00,VWS V14.01,2013-01-15 23:29:00,
2013-01-15 18:30:00,28.9,19.4,30.24,North,0,0.0,0.0,67,0.00,,OVC,0.00,VWS V14.01,2013-01-15 23:30:00,
2013-01-15 18:34:00,28.9,19.7,30.24,North,0,2.0,2.0,68,0.00,,OVC,0.00,VWS V14.01,2013-01-15 23:34:00,
2013-01-15 18:39:00,28.9,19.7,30.24,North,0,0.0,0.0,68,0.00,,OVC,0.00,VWS V14.01,2013-01-15 23:39:00,
2013-01-15 18:44:00,28.9,19.7,30.24,North,0,0.0,0.0,68,0.00,,OVC,0.00,VWS V14.01,2013-01-15 23:44:00,
2013-01-15 18:49:00,28.9,20.4,30.24,NNW,338,2.0,2.7,70,0.00,,OVC,0.00,VWS V14.01,2013-01-15 23:49:00,
2013-01-15 18:54:00,29.1,20.9,30.27,NNW,338,0.9,1.3,71,0.00,,OVC,0.00,VWS V14.01,2013-01-15 23:54:00,
2013-01-15 18:59:00,29.3,20.7,30.27,NNW,338,0.0,1.6,70,0.00,,OVC,0.00,VWS V14.01,2013-01-15 23:59:00,
2013-01-15 19:00:00,29.3,20.8,30.27,NNW,338,1.3,2.0,70,0.00,,OVC,0.00,VWS V14.01,2013-01-16 00:00:00,
2013-01-15 19:04:00,29.3,20.4,30.27,NNW,338,0.9,2.0,69,0.00,,OVC,0.00,VWS V14.01,2013-01-16 00:04:00,
2013-01-15 19:09:00,29.3,20.1,30.24,NNW,338,2.5,2.7,68,0.00,,OVC,0.00,VWS V14.01,2013-01-16 00:09:00,
2013-01-15 19:14:00,29.5,19.5,30.24,NW,315,3.6,3.8,66,0.00,,OVC,0.00,VWS V14.01,2013-01-16 00:14:00,
2013-01-15 19:19:00,30.2,17.2,30.24,NW,315,3.8,4.7,58,0.00,,OVC,0.00,VWS V14.01,2013-01-16 00:19:00,
2013-01-15 19:24:00,30.4,15.7,30.24,NW,315,5.4,5.4,54,0.00,,OVC,0.00,VWS V14.01,2013-01-16 00:24:00,
2013-01-15 19:29:00,30.2,16.8,30.24,NNW,338,2.9,2.9,57,0.00,,OVC,0.00,VWS V14.01,2013-01-16 00:29:00,
2013-01-15 19:30:00,30.2,16.4,30.24,NW,315,2.7,3.1,56,0.00,,OVC,0.00,VWS V14.01,2013-01-16 00:30:00,
2013-01-15 19:34:00,29.8,16.5,30.24,NNW,338,2.0,2.2,57,0.00,,OVC,0.00,VWS V14.01,2013-01-16 00:34:00,
2013-01-15 19:39:00,29.8,16.5,30.24,NNW,338,1.1,2.0,57,0.00,,OVC,0.00,VWS V14.01,2013-01-16 00:39:00,
2013-01-15 19:44:00,29.7,15.9,30.24,NNW,338,2.0,2.2,56,0.00,,OVC,0.00,VWS V14.01,2013-01-16 00:44:00,
2013-01-15 19:49:00,29.3,16.0,30.24,NNW,338,0.0,1.1,57,0.00,,OVC,0.00,VWS V14.01,2013-01-16 00:49:00,
2013-01-15 19:54:00,29.1,15.8,30.24,NNW,338,0.0,0.0,57,0.00,,OVC,0.00,VWS V14.01,2013-01-16 00:54:00,
2013-01-15 19:59:00,28.9,15.6,30.24,NNW,338,1.1,2.0,57,0.00,,OVC,0.00,VWS V14.01,2013-01-16 00:59:00,
2013-01-15 20:00:00,28.9,15.6,30.24,NNW,338,1.3,1.3,57,0.00,,OVC,0.00,VWS V14.01,2013-01-16 01:00:00,
2013-01-15 20:04:00,28.9,15.6,30.24,NNW,338,0.0,0.0,57,0.00,,OVC,0.00,VWS V14.01,2013-01-16 01:04:00,
2013-01-15 20:09:00,28.6,15.7,30.24,NNW,338,0.0,0.0,58,0.00,,OVC,0.00,VWS V14.01,2013-01-16 01:09:00,
2013-01-15 20:14:00,28.0,15.6,30.24,NNW,338,0.0,0.0,59,0.00,,OVC,0.00,VWS V14.01,2013-01-16 01:14:00,
2013-01-15 20:19:00,27.9,15.8,30.24,NNW,338,0.0,0.0,60,0.00,,OVC,0.00,VWS V14.01,2013-01-16 01:19:00,
2013-01-15 20:25:00,27.7,15.6,30.27,NNW,338,0.0,0.9,60,0.00,,OVC,0.00,VWS V14.01,2013-01-16 01:25:00,
2013-01-15 20:30:00,27.9,15.8,30.27,NNW,338,1.1,3.1,60,0.00,,OVC,0.00,VWS V14.01,2013-01-16 01:30:00,
2013-01-15 20:35:00,28.6,15.3,30.27,NNW,338,2.5,2.5,57,0.00,,OVC,0.00,VWS V14.01,2013-01-16 01:35:00,
2013-01-15 20:40:00,28.8,15.1,30.24,NNW,338,1.3,2.0,56,0.00,,OVC,0.00,VWS V14.01,2013-01-16 01:40:00,
2013-01-15 20:45:00,28.9,14.8,30.24,NNW,338,2.7,2.9,55,0.00,,OVC,0.00,VWS V14.01,2013-01-16 01:45:00,
2013-01-15 20:50:00,28.9,14.4,30.24,NW,315,1.6,1.6,54,0.00,,OVC,0.00,VWS V14.01,2013-01-16 01:50:00,
2013-01-15 20:55:00,29.3,14.3,30.27,NNW,338,2.9,2.9,53,0.00,,OVC,0.00,VWS V14.01,2013-01-16 01:55:00,
2013-01-15 21:00:00,29.1,13.7,30.27,NNW,338,2.0,2.0,52,0.00,,OVC,0.00,VWS V14.01,2013-01-16 02:00:00,
2013-01-15 21:05:00,29.3,13.9,30.27,NNW,338,1.3,3.1,52,0.00,,OVC,0.00,VWS V14.01,2013-01-16 02:05:00,
2013-01-15 21:10:00,29.1,13.7,30.24,NNW,338,2.5,2.7,52,0.00,,OVC,0.00,VWS V14.01,2013-01-16 02:10:00,
2013-01-15 21:15:00,29.1,13.3,30.24,NNW,338,2.5,3.8,51,0.00,,OVC,0.00,VWS V14.01,2013-01-16 02:15:00,
2013-01-15 21:20:00,29.1,12.8,30.24,NNW,338,2.5,2.9,50,0.00,,OVC,0.00,VWS V14.01,2013-01-16 02:20:00,
2013-01-15 21:25:00,29.3,12.1,30.27,NNW,338,2.5,3.4,48,0.00,,OVC,0.00,VWS V14.01,2013-01-16 02:25:00,
2013-01-15 21:30:00,28.9,13.1,30.27,NNW,338,2.0,2.0,51,0.00,,OVC,0.00,VWS V14.01,2013-01-16 02:30:00,
2013-01-15 21:35:00,28.8,12.9,30.27,NNW,338,0.0,0.0,51,0.00,,OVC,0.00,VWS V14.01,2013-01-16 02:35:00,
2013-01-15 21:40:00,28.4,13.0,30.24,NNW,338,0.0,0.0,52,0.00,,OVC,0.00,VWS V14.01,2013-01-16 02:40:00,
2013-01-15 21:45:00,28.0,12.7,30.24,NNW,338,0.0,0.0,52,0.00,,OVC,0.00,VWS V14.01,2013-01-16 02:45:00,
2013-01-15 21:50:00,27.9,13.0,30.24,NNW,338,0.0,0.0,53,0.00,,OVC,0.00,VWS V14.01,2013-01-16 02:50:00,
2013-01-15 21:55:00,27.9,13.0,30.27,NNW,338,0.0,0.0,53,0.00,,OVC,0.00,VWS V14.01,2013-01-16 02:55:00,
2013-01-15 22:00:00,27.5,13.1,30.27,NNW,338,0.0,0.0,54,0.00,,OVC,0.00,VWS V14.01,2013-01-16 03:00:00,
2013-01-15 22:05:00,27.5,13.1,30.27,NNW,338,0.0,0.0,54,0.00,,OVC,0.00,VWS V14.01,2013-01-16 03:05:00,
2013-01-15 22:10:00,27.5,13.1,30.24,NNW,338,0.0,0.0,54,0.00,,OVC,0.00,VWS V14.01,2013-01-16 03:10:00,
2013-01-15 22:15:00,27.5,13.1,30.24,NNW,338,0.0,0.0,54,0.00,,OVC,0.00,VWS V14.01,2013-01-16 03:15:00,
2013-01-15 22:20:00,27.1,13.1,30.24,NNW,338,0.0,0.0,55,0.00,,OVC,0.00,VWS V14.01,2013-01-16 03:20:00,
2013-01-15 22:25:00,27.0,13.0,30.24,NNW,338,0.0,0.0,55,0.00,,OVC,0.00,VWS V14.01,2013-01-16 03:25:00,
2013-01-15 22:30:00,26.8,12.8,30.24,NNW,338,0.0,0.0,55,0.00,,OVC,0.00,VWS V14.01,2013-01-16 03:30:00,
2013-01-15 22:35:00,26.4,12.5,30.24,NNW,338,0.0,0.0,55,0.00,,OVC,0.00,VWS V14.01,2013-01-16 03:35:00,
2013-01-15 22:40:00,26.2,12.7,30.24,NNW,338,0.0,0.0,56,0.00,,OVC,0.00,VWS V14.01,2013-01-16 03:40:00,
2013-01-15 22:45:00,26.1,12.5,30.24,NNW,338,0.0,0.0,56,0.00,,OVC,0.00,VWS V14.01,2013-01-16 03:45:00,
2013-01-15 22:50:00,25.9,12.4,30.24,NNW,338,0.0,0.0,56,0.00,,OVC,0.00,VWS V14.01,2013-01-16 03:50:00,
2013-01-15 22:55:00,25.9,12.4,30.24,NNW,338,0.0,0.0,56,0.00,,OVC,0.00,VWS V14.01,2013-01-16 03:55:00,
2013-01-15 23:00:00,25.9,12.8,30.24,NNW,338,0.0,0.0,57,0.00,,OVC,0.00,VWS V14.01,2013-01-16 04:00:00,
2013-01-15 23:01:00,25.9,12.8,30.24,NNW,338,0.0,0.0,57,0.00,,OVC,0.00,VWS V14.01,2013-01-16 04:01:00,
2013-01-15 23:06:00,26.1,13.3,30.24,NNW,338,0.0,0.0,58,0.00,,OVC,0.00,VWS V14.01,2013-01-16 04:06:00,
2013-01-15 23:11:00,26.1,13.3,30.24,NNW,338,1.3,1.6,58,0.00,,OVC,0.00,VWS V14.01,2013-01-16 04:11:00,
2013-01-15 23:16:00,26.2,14.3,30.24,NNW,338,2.5,2.5,60,0.00,,OVC,0.00,VWS V14.01,2013-01-16 04:16:00,
2013-01-15 23:21:00,26.2,15.0,30.24,NNW,338,0.0,1.6,62,0.00,,OVC,0.00,VWS V14.01,2013-01-16 04:21:00,
2013-01-15 23:26:00,26.2,15.0,30.24,NNW,338,0.0,0.0,62,0.00,,OVC,0.00,VWS V14.01,2013-01-16 04:26:00,
2013-01-15 23:30:00,26.2,15.0,30.24,NNW,338,0.0,0.0,62,0.00,,OVC,0.00,VWS V14.01,2013-01-16 04:30:00,
2013-01-15 23:31:00,26.2,15.0,30.24,NNW,338,0.0,0.0,62,0.00,,OVC,0.00,VWS V14.01,2013-01-16 04:31:00,
2013-01-15 23:36:00,26.2,15.0,30.24,NNW,338,0.0,0.0,62,0.00,,OVC,0.00,VWS V14.01,2013-01-16 04:36:00,
2013-01-15 23:41:00,26.4,15.2,30.24,NNW,338,0.0,0.0,62,0.00,,OVC,0.00,VWS V14.01,2013-01-16 04:41:00,
2013-01-15 23:46:00,26.4,15.2,30.24,NNW,338,0.0,0.0,62,0.00,,OVC,0.00,VWS V14.01,2013-01-16 04:46:00,
2013-01-15 23:51:00,26.4,15.2,30.24,NNW,338,0.0,0.0,62,0.00,,OVC,0.00,VWS V14.01,2013-01-16 04:51:00,
2013-01-15 23:56:00,26.4,15.2,30.24,NNW,338,0.0,0.0,62,0.00,,OVC,0.00,VWS V14.01,2013-01-16 04:56:00,